Time;durP1;ratioP1;P1;durP2;ratioP2;P2;SDS_P1;SDS_P2;PMS_P1;PMS_P2;Temp;Humidity;BMP_temperature;BMP_pressure;BME280_temperature;BME280_humidity;BME280_pressure;Samples;Min_cycle;Max_cycle;Signal;HPM_P1;HPM_P2
2022/01/24 04:32:06;;;;;;;15.33;9.83;;;;;;;3.94;59.25;100365.06;7665812;22;20233;-81
2022/01/24 04:35:27;;;;;;;15.00;9.93;;;;;;;3.55;61.81;100372.78;6957737;28;20711;-81
2022/01/24 04:38:49;;;;;;;13.27;10.13;;;;;;;4.23;60.05;100360.81;6953852;28;20203;-81
2022/01/24 04:42:15;;;;;;;13.83;9.97;;;;;;;4.48;59.15;100363.13;6954612;28;20228;-82
2022/01/24 06:27:17;;;;;;;;;;;;;;;;;;;;;
2022/01/24 06:35:40;;;;;;;16.23;10.07;;;;;;;4.37;59.68;100386.38;6933425;28;20319;-86
2022/01/24 06:39:05;;;;;;;14.03;9.87;;;;;;;4.78;59.25;100365.88;6936046;28;20681;-86
2022/01/24 06:42:27;;;;;;;14.13;9.40;;;;;;;4.93;59.65;100393.97;6930610;28;20215;-91
2022/01/24 06:45:48;;;;;;;14.03;10.10;;;;;;;5.02;59.05;100401.19;6930275;28;20228;-91
2022/01/24 06:49:10;;;;;;;14.13;9.77;;;;;;;4.36;60.36;100360.66;6937359;28;20225;-90
2022/01/24 06:52:37;;;;;;;13.20;9.83;;;;;;;4.63;60.52;100419.75;6916751;28;20204;-88
2022/01/24 06:59:51;;;;;;;17.17;10.50;;;;;;;5.38;58.76;100426.59;6931895;28;20268;-89
2022/01/24 07:03:40;;;;;;;16.97;10.63;;;;;;;4.87;58.96;100381.13;6933677;28;20234;-88
2022/01/24 07:07:08;;;;;;;16.13;10.40;;;;;;;5.03;59.37;100368.16;6931036;28;20218;-88
2022/01/24 07:10:33;;;;;;;12.57;9.93;;;;;;;5.62;58.14;100428.00;6929028;28;20230;-88
2022/01/24 07:14:05;;;;;;;12.73;9.27;;;;;;;4.92;58.50;100375.41;6923521;28;20818;-87
2022/01/24 07:18:00;;;;;;;12.87;9.70;;;;;;;5.59;58.45;100422.03;6931829;28;20201;-88
2022/01/24 07:21:31;;;;;;;14.27;9.83;;;;;;;5.13;59.68;100427.03;6928849;28;20213;-89
2022/01/24 07:25:08;;;;;;;13.87;9.67;;;;;;;5.12;59.42;100404.78;6931682;28;20227;-88
2022/01/24 07:29:10;;;;;;;14.50;9.87;;;;;;;5.26;59.43;100428.50;6932956;28;20238;-87
2022/01/24 07:36:55;;;;;;;13.80;10.73;;;;;;;5.44;58.95;100448.31;6931924;28;20341;-87
2022/01/24 07:40:50;;;;;;;15.93;10.03;;;;;;;5.22;58.93;100376.28;6923311;28;20213;-88
2022/01/24 07:44:20;;;;;;;13.37;9.80;;;;;;;5.13;59.94;100427.03;6932330;28;20227;-88
2022/01/24 07:47:47;;;;;;;11.83;10.07;;;;;;;5.22;59.62;100421.72;6933341;28;20207;-87
2022/01/24 07:51:24;;;;;;;14.83;10.13;;;;;;;5.75;59.48;100460.72;6932980;28;20267;-89
2022/01/24 07:55:10;;;;;;;17.73;13.57;;;;;;;5.74;59.78;100453.66;6932604;28;20289;-87
2022/01/24 07:59:03;;;;;;;36.40;23.53;;;;;;;5.70;59.04;100465.63;6933964;28;20217;-88
2022/01/24 08:02:49;;;;;;;28.03;20.17;;;;;;;5.76;59.04;100406.19;6934434;28;20296;-89
2022/01/24 08:06:18;;;;;;;13.70;10.63;;;;;;;5.58;58.47;100381.06;6932132;28;20216;-87
2022/01/24 08:09:41;;;;;;;19.77;12.27;;;;;;;6.21;58.48;100460.19;6931874;28;20226;-87
2022/01/24 08:13:09;;;;;;;17.33;11.77;;;;;;;6.42;57.97;100444.88;6932144;28;20232;-87
2022/01/24 08:16:31;;;;;;;15.03;11.20;;;;;;;6.33;57.10;100381.41;6926125;28;20223;-84
2022/01/24 08:19:54;;;;;;;15.93;11.17;;;;;;;6.64;56.40;100466.88;6922913;28;20297;-88
2022/01/24 08:23:17;;;;;;;13.50;10.80;;;;;;;6.57;56.97;100475.63;6921084;28;20222;-81
2022/01/24 08:26:39;;;;;;;14.30;11.33;;;;;;;6.04;56.79;100378.69;6916834;28;20226;-86
2022/01/24 08:30:01;;;;;;;13.70;10.57;;;;;;;6.79;56.90;100459.28;6915482;28;20224;-82
2022/01/24 08:33:22;;;;;;;12.70;9.50;;;;;;;7.00;56.36;100455.44;6915858;28;20227;-82
2022/01/24 08:36:47;;;;;;;12.97;10.40;;;;;;;7.04;56.35;100461.38;6914896;28;20625;-82
2022/01/24 08:40:11;;;;;;;11.27;9.17;;;;;;;7.26;56.21;100448.47;6906591;28;20232;-82
2022/01/24 08:43:52;;;;;;;13.83;10.57;;;;;;;7.04;56.24;100407.75;6903325;28;20801;-81
2022/01/24 08:47:14;;;;;;;12.70;10.57;;;;;;;9.99;50.93;100451.13;6908770;28;20335;-80
2022/01/24 08:50:35;;;;;;;13.60;10.27;;;;;;;11.98;43.89;100441.53;6888721;28;20635;-80
2022/01/24 08:53:59;;;;;;;13.80;10.93;;;;;;;13.07;41.59;100437.72;6899349;28;20626;-80
2022/01/24 08:57:25;;;;;;;12.80;9.00;;;;;;;12.89;41.00;100435.28;6900173;28;20200;-80
2022/01/24 09:00:47;;;;;;;11.83;9.20;;;;;;;13.02;40.02;100416.59;6899139;28;20283;-80
2022/01/24 09:04:08;;;;;;;12.83;9.67;;;;;;;13.07;40.15;100435.84;6891878;28;20263;-80
2022/01/24 09:07:30;;;;;;;18.20;12.73;;;;;;;12.42;41.30;100441.84;6904811;28;20619;-80
2022/01/24 09:10:53;;;;;;;13.10;11.40;;;;;;;11.89;42.28;100434.47;6919622;28;20235;-81
2022/01/24 09:14:15;;;;;;;13.50;11.10;;;;;;;10.48;46.77;100436.88;6919252;28;20234;-80
2022/01/24 09:17:37;;;;;;;18.17;14.97;;;;;;;9.59;48.85;100448.25;6919915;28;20223;-80
2022/01/24 09:20:59;;;;;;;13.67;11.53;;;;;;;9.49;49.28;100438.56;6918236;28;20259;-79
2022/01/24 09:24:20;;;;;;;13.57;10.80;;;;;;;9.50;50.00;100443.78;6912507;28;20308;-80
2022/01/24 09:27:44;;;;;;;13.80;10.00;;;;;;;9.20;50.62;100440.69;6892837;28;20208;-80
2022/01/24 09:31:05;;;;;;;10.83;8.20;;;;;;;9.42;49.68;100435.66;6903803;28;20246;-80
2022/01/24 09:34:27;;;;;;;9.53;7.97;;;;;;;9.30;50.44;100442.31;6917972;28;20230;-81
2022/01/24 09:37:49;;;;;;;8.00;7.03;;;;;;;8.99;50.11;100426.75;6919278;28;20207;-82
2022/01/24 09:41:12;;;;;;;6.87;6.27;;;;;;;8.34;51.94;100424.47;6913195;28;20242;-82
2022/01/24 09:44:35;;;;;;;7.53;6.80;;;;;;;8.13;52.07;100393.47;6901212;28;20804;-82
2022/01/24 09:47:58;;;;;;;9.33;6.77;;;;;;;8.40;51.97;100431.91;6906455;28;20207;-83
2022/01/24 09:51:20;;;;;;;8.27;6.03;;;;;;;8.60;50.85;100395.81;6902638;28;20220;-84
2022/01/24 09:54:41;;;;;;;7.23;6.53;;;;;;;8.44;51.48;100445.91;6898935;28;20230;-83
2022/01/24 09:58:03;;;;;;;6.90;6.20;;;;;;;8.08;52.55;100447.63;6911689;28;20212;-80
2022/01/24 10:01:26;;;;;;;8.57;6.43;;;;;;;8.45;52.23;100436.81;6943546;28;20204;-81
2022/01/24 10:04:48;;;;;;;7.37;6.57;;;;;;;8.48;52.05;100436.53;6923388;28;20227;-85
2022/01/24 10:08:17;;;;;;;8.07;7.00;;;;;;;7.72;53.79;100444.97;6921329;28;20211;-81
2022/01/24 10:11:39;;;;;;;8.83;6.83;;;;;;;8.49;51.86;100435.53;6918996;28;20660;-78
2022/01/24 10:18:43;;;;;;;8.27;6.97;;;;;;;8.61;52.90;100428.94;6926284;28;20750;-82
2022/01/24 10:22:06;;;;;;;10.10;6.83;;;;;;;8.91;50.51;100426.69;6918267;28;20210;-80
2022/01/24 10:25:27;;;;;;;7.97;6.30;;;;;;;8.99;50.28;100424.91;6917971;28;20230;-82
2022/01/24 10:28:49;;;;;;;7.83;6.07;;;;;;;9.19;50.82;100412.09;6918373;28;20272;-81
2022/01/24 10:32:38;;;;;;;5.87;5.30;;;;;;;9.22;50.30;100418.03;6920013;28;20207;-84
2022/01/24 10:36:04;;;;;;;6.47;5.80;;;;;;;8.69;50.33;100394.03;6918794;28;20206;-82
2022/01/24 10:39:31;;;;;;;5.83;5.33;;;;;;;9.47;49.11;100378.66;6913748;28;20210;-80
2022/01/24 10:42:55;;;;;;;7.73;5.50;;;;;;;9.02;49.59;100386.94;6904366;28;20204;-81
2022/01/24 10:46:22;;;;;;;5.87;5.37;;;;;;;9.97;47.46;100380.41;6910707;28;20233;-84
2022/01/24 10:49:45;;;;;;;6.57;5.10;;;;;;;9.08;49.33;100405.16;6912943;28;20246;-82
2022/01/24 10:53:13;;;;;;;6.93;5.60;;;;;;;8.80;51.27;100396.50;6910948;28;20677;-82
2022/01/24 10:56:36;;;;;;;6.73;4.97;;;;;;;9.25;49.52;100384.56;6912944;28;20241;-83
2022/01/24 11:00:02;;;;;;;6.50;5.67;;;;;;;8.46;51.46;100393.69;6900841;28;20220;-83
2022/01/24 11:03:24;;;;;;;5.40;5.00;;;;;;;8.65;50.76;100328.13;6900827;28;20327;-81
2022/01/24 11:06:48;;;;;;;6.63;5.00;;;;;;;9.43;49.58;100377.28;6898953;28;20302;-86
2022/01/24 11:10:11;;;;;;;5.83;4.73;;;;;;;9.85;48.20;100341.28;6898311;28;20237;-82
2022/01/24 11:13:34;;;;;;;7.43;4.63;;;;;;;9.25;48.30;100258.06;6899523;28;20231;-83
2022/01/24 11:16:59;;;;;;;9.17;5.00;;;;;;;9.82;48.60;100378.47;6905876;28;20203;-85
2022/01/24 11:20:23;;;;;;;6.77;5.10;;;;;;;9.95;48.50;100368.09;6933441;28;20241;-87
2022/01/24 11:23:46;;;;;;;6.00;4.60;;;;;;;9.52;49.67;100370.94;6935160;28;20236;-88
2022/01/24 11:27:09;;;;;;;5.03;4.63;;;;;;;9.68;47.90;100306.41;6922256;28;20208;-82
2022/01/24 11:30:49;;;;;;;5.73;4.70;;;;;;;10.04;47.65;100369.84;6916573;28;20605;-87
2022/01/24 11:34:17;;;;;;;4.87;4.23;;;;;;;10.19;47.64;100346.63;6906091;28;20261;-88
2022/01/24 11:37:40;;;;;;;4.30;3.90;;;;;;;10.12;47.46;100368.03;6933129;28;20235;-86
2022/01/24 11:41:07;;;;;;;5.67;4.37;;;;;;;10.05;48.32;100380.44;6933883;28;20204;-86
2022/01/24 11:44:49;;;;;;;4.60;4.20;;;;;;;10.40;47.05;100339.75;6918865;28;20230;-86
2022/01/24 11:48:16;;;;;;;4.23;3.83;;;;;;;10.25;47.62;100357.59;6925858;28;20196;-88
2022/01/24 11:51:39;;;;;;;5.00;4.27;;;;;;;10.79;46.49;100351.59;6919170;28;20227;-86
2022/01/24 11:55:13;;;;;;;4.37;3.97;;;;;;;10.43;46.77;100315.16;6921663;28;20593;-85
2022/01/24 11:58:37;;;;;;;5.83;4.33;;;;;;;10.32;47.03;100346.97;6922979;28;20211;-87
2022/01/24 12:02:09;;;;;;;4.50;4.10;;;;;;;10.47;46.25;100308.44;6933670;28;20226;-85
2022/01/24 12:05:56;;;;;;;4.13;3.80;;;;;;;9.82;48.55;100341.63;6935817;28;20239;-85
2022/01/24 12:09:47;;;;;;;6.03;4.10;;;;;;;10.24;47.45;100330.81;6937175;28;20317;-85
2022/01/24 12:13:14;;;;;;;4.00;3.60;;;;;;;11.01;45.52;100313.13;6933691;28;20224;-84
2022/01/24 12:16:37;;;;;;;3.87;3.57;;;;;;;10.83;45.71;100306.22;6934201;28;20210;-85
2022/01/24 12:20:00;;;;;;;4.70;3.70;;;;;;;10.62;46.67;100325.63;6929243;28;20213;-86
2022/01/24 12:23:34;;;;;;;4.10;3.80;;;;;;;10.31;47.22;100312.94;6922619;28;20238;-88
2022/01/24 12:27:05;;;;;;;3.90;3.60;;;;;;;11.12;44.99;100298.41;6921080;28;20211;-88
2022/01/24 12:31:00;;;;;;;3.80;3.50;;;;;;;10.93;44.94;100315.00;6933575;28;20223;-86
2022/01/24 12:34:27;;;;;;;7.37;3.80;;;;;;;10.72;46.07;100318.22;6923658;28;20234;-87
2022/01/24 12:37:50;;;;;;;4.37;3.60;;;;;;;11.65;44.15;100318.38;6927938;28;20211;-88
2022/01/24 12:41:16;;;;;;;4.10;3.70;;;;;;;10.89;45.31;100302.84;6936573;28;20793;-84
2022/01/24 12:48:20;;;;;;;5.00;3.73;;;;;;;11.45;44.21;100287.34;6933222;28;20230;-85
2022/01/24 12:51:41;;;;;;;3.47;3.17;;;;;;;11.48;43.50;100222.19;6932656;28;20227;-85
2022/01/24 12:55:06;;;;;;;4.23;3.73;;;;;;;11.13;44.74;100292.00;6927642;28;20224;-84
2022/01/24 12:58:32;;;;;;;5.07;3.40;;;;;;;11.42;44.93;100282.28;6929857;28;20196;-83
2022/01/24 13:01:56;;;;;;;4.90;4.40;;;;;;;11.01;45.73;100279.88;6931353;28;20207;-83
2022/01/24 13:05:21;;;;;;;4.73;4.17;;;;;;;11.07;46.09;100290.84;6937118;28;20223;-86
2022/01/24 13:08:53;;;;;;;4.30;3.90;;;;;;;11.43;44.69;100289.38;6937544;28;20472;-85
2022/01/24 13:12:16;;;;;;;5.13;3.40;;;;;;;11.44;44.58;100284.78;6950545;28;20250;-85
2022/01/24 13:23:00;;;;;;;3.97;3.60;;;;;;;10.98;45.46;100272.97;6930102;28;20227;-85
2022/01/24 13:26:21;;;;;;;5.00;3.63;;;;;;;11.14;44.70;100251.34;6932211;28;20227;-86
2022/01/24 13:29:44;;;;;;;5.23;3.60;;;;;;;11.55;44.44;100277.16;6925998;28;20766;-87
2022/01/24 13:33:07;;;;;;;3.70;3.37;;;;;;;11.14;45.42;100270.22;6931390;28;20231;-85
2022/01/24 13:36:29;;;;;;;4.23;3.83;;;;;;;11.35;44.80;100269.66;6930909;28;20211;-83
2022/01/24 13:39:53;;;;;;;4.50;3.50;;;;;;;11.39;44.05;100208.88;6931813;28;20203;-82
2022/01/24 13:43:15;;;;;;;4.73;3.63;;;;;;;11.73;43.39;100237.25;6938541;28;20231;-83
2022/01/24 13:46:40;;;;;;;3.83;3.53;;;;;;;11.76;43.59;100263.09;6938061;28;20543;-83
2022/01/24 13:50:05;;;;;;;4.57;3.47;;;;;;;11.87;43.27;100268.09;6927152;28;20215;-79
2022/01/24 13:53:36;;;;;;;4.23;3.83;;;;;;;11.88;43.74;100256.25;6907740;28;20228;-80
2022/01/24 13:56:59;;;;;;;3.83;3.30;;;;;;;11.09;45.56;100251.00;6900390;28;20200;-82
2022/01/24 14:00:26;;;;;;;3.90;3.60;;;;;;;11.32;44.55;100265.44;6899078;28;20211;-81
2022/01/24 14:03:57;;;;;;;4.50;4.00;;;;;;;10.93;45.11;100277.19;6901800;28;20219;-84
2022/01/24 14:07:22;;;;;;;5.00;3.53;;;;;;;11.17;45.29;100239.34;6926865;28;20207;-84
2022/01/24 14:10:44;;;;;;;4.03;3.63;;;;;;;11.69;44.25;100278.31;6927307;28;20223;-84
2022/01/24 14:14:10;;;;;;;3.70;3.40;;;;;;;11.98;43.35;100251.47;6926521;28;20231;-83
2022/01/24 14:17:40;;;;;;;4.67;3.70;;;;;;;12.26;42.49;100260.72;6927201;28;20246;-84
2022/01/24 14:21:13;;;;;;;4.20;3.80;;;;;;;12.03;42.71;100268.00;6918233;28;20228;-84
2022/01/24 14:24:49;;;;;;;5.30;4.00;;;;;;;11.48;43.48;100276.19;6916407;28;20222;-84
2022/01/24 14:28:11;;;;;;;5.13;3.80;;;;;;;11.61;44.12;100240.53;6919875;28;20203;-86
2022/01/24 14:31:33;;;;;;;4.73;3.80;;;;;;;11.51;43.57;100270.41;6924014;28;20234;-84
2022/01/24 14:35:04;;;;;;;5.30;3.90;;;;;;;11.95;43.04;100259.91;6913753;28;20224;-85
2022/01/24 14:38:35;;;;;;;4.27;3.87;;;;;;;12.30;42.02;100267.44;6907628;28;20199;-85
2022/01/24 14:41:58;;;;;;;5.17;3.80;;;;;;;11.45;43.76;100251.41;6922200;28;20287;-85
2022/01/24 14:45:19;;;;;;;3.90;3.60;;;;;;;11.35;43.65;100275.06;6925179;28;20595;-83
2022/01/24 14:48:49;;;;;;;4.20;3.40;;;;;;;11.18;44.28;100239.19;6926562;28;20215;-84
2022/01/24 14:52:14;;;;;;;5.37;4.10;;;;;;;11.32;44.50;100280.78;6916203;28;20224;-85
2022/01/24 14:55:37;;;;;;;6.27;3.70;;;;;;;11.62;44.03;100274.66;6908302;28;20239;-86
2022/01/24 14:58:59;;;;;;;3.80;3.50;;;;;;;11.29;44.03;100219.06;6907721;28;20220;-85
2022/01/24 15:02:21;;;;;;;6.73;4.03;;;;;;;11.24;44.42;100278.13;6901924;28;20612;-79
2022/01/24 15:05:43;;;;;;;3.83;3.40;;;;;;;11.41;44.72;100274.34;6901043;28;20227;-81
2022/01/24 15:09:07;;;;;;;4.07;3.60;;;;;;;11.68;44.25;100277.47;6913015;28;20549;-81
2022/01/24 15:12:35;;;;;;;5.70;4.20;;;;;;;10.69;44.79;100175.56;6905608;28;20220;-85
2022/01/24 15:16:12;;;;;;;4.07;3.70;;;;;;;11.64;43.28;100219.41;6921855;28;20300;-84
2022/01/24 15:27:13;;;;;;;4.23;3.83;;;;;;;11.59;43.86;100254.22;6908928;28;20661;-85
2022/01/24 15:30:38;;;;;;;4.53;4.00;;;;;;;11.43;44.22;100277.72;6909968;28;20287;-86
2022/01/24 15:34:00;;;;;;;4.60;3.70;;;;;;;12.15;42.88;100280.91;6904208;28;20228;-88
2022/01/24 15:37:22;;;;;;;5.77;3.70;;;;;;;11.97;43.38;100276.78;6915237;28;20210;-87
2022/01/24 15:40:44;;;;;;;4.00;3.50;;;;;;;11.90;43.25;100287.50;6936476;28;20203;-86
2022/01/24 15:44:21;;;;;;;4.30;3.37;;;;;;;11.91;43.25;100259.44;6932198;28;20530;-87
2022/01/24 15:47:47;;;;;;;3.87;3.57;;;;;;;12.07;42.88;100272.00;6930145;28;20293;-88
2022/01/24 15:51:12;;;;;;;3.50;3.20;;;;;;;11.80;43.44;100261.72;6936244;28;20238;-86
2022/01/24 15:54:34;;;;;;;4.27;3.60;;;;;;;10.95;44.71;100251.72;6936877;28;20236;-84
2022/01/24 15:57:57;;;;;;;5.27;3.57;;;;;;;11.48;44.59;100278.03;6935697;28;20204;-85
2022/01/24 16:01:19;;;;;;;5.93;3.70;;;;;;;11.69;43.78;100287.25;6937017;28;20211;-85
2022/01/24 16:04:42;;;;;;;4.63;3.60;;;;;;;11.45;44.47;100281.09;6934156;28;20717;-87
2022/01/24 16:08:10;;;;;;;49.17;22.97;;;;;;;11.59;44.35;100267.75;6926618;28;20214;-85
2022/01/24 16:11:31;;;;;;;6.67;5.20;;;;;;;11.40;44.51;100272.69;6935515;28;20238;-84
2022/01/24 16:14:53;;;;;;;10.17;6.27;;;;;;;10.75;45.32;100198.31;6924653;28;20228;-85
2022/01/24 16:18:17;;;;;;;8.00;5.30;;;;;;;10.64;46.02;100217.56;6930274;28;20194;-86
2022/01/24 16:21:45;;;;;;;8.07;4.13;;;;;;;10.72;46.70;100288.53;6930351;28;20210;-86
2022/01/24 16:25:23;;;;;;;3.83;3.47;;;;;;;10.27;47.17;100257.72;6913039;28;20240;-86
2022/01/24 16:28:44;;;;;;;5.27;4.23;;;;;;;10.34;47.17;100278.41;6902493;28;20191;-88
2022/01/24 16:32:07;;;;;;;5.00;4.40;;;;;;;10.12;47.79;100278.22;6905236;28;20222;-85
2022/01/24 16:35:29;;;;;;;6.13;4.77;;;;;;;10.11;48.10;100287.34;6913731;28;20229;-86
2022/01/24 16:38:52;;;;;;;5.87;4.70;;;;;;;9.84;48.89;100298.34;6919096;28;20560;-85
2022/01/24 16:42:16;;;;;;;5.97;4.60;;;;;;;9.41;49.46;100255.47;6909304;28;20206;-86
2022/01/24 16:49:20;;;;;;;6.70;4.47;;;;;;;9.45;50.73;100294.53;6905261;28;20207;-83
2022/01/24 16:52:45;;;;;;;7.67;5.67;;;;;;;9.20;53.04;100290.00;6907224;28;20234;-85
2022/01/24 16:56:11;;;;;;;8.97;5.27;;;;;;;9.87;52.11;100306.94;6940841;28;20274;-83
2022/01/24 16:59:33;;;;;;;5.90;4.57;;;;;;;8.82;49.91;100153.31;6941822;28;20214;-84
2022/01/24 17:02:55;;;;;;;7.63;5.57;;;;;;;9.58;49.79;100306.50;6934385;28;20233;-86
2022/01/24 17:06:16;;;;;;;9.40;6.13;;;;;;;9.09;50.47;100298.38;6930522;28;20222;-87
2022/01/24 17:09:38;;;;;;;6.47;5.37;;;;;;;8.81;51.16;100307.59;6929747;28;20207;-86
2022/01/24 17:13:05;;;;;;;8.90;6.40;;;;;;;8.75;51.93;100305.53;6931092;28;20243;-84
2022/01/24 17:16:31;;;;;;;14.03;7.80;;;;;;;8.75;51.62;100284.03;6933493;28;20206;-87
2022/01/24 17:19:55;;;;;;;9.87;7.70;;;;;;;8.57;52.10;100285.91;6931045;28;20219;-87
2022/01/24 17:23:18;;;;;;;10.90;7.73;;;;;;;8.75;52.43;100297.47;6930552;28;20230;-84
2022/01/24 17:26:39;;;;;;;10.83;7.50;;;;;;;8.41;52.65;100307.28;6927912;28;20576;-84
2022/01/24 17:30:03;;;;;;;10.77;7.80;;;;;;;8.43;52.83;100278.41;6909002;28;20219;-86
2022/01/24 17:33:29;;;;;;;12.37;7.57;;;;;;;8.65;52.11;100299.41;6921929;28;20595;-86
2022/01/24 17:36:50;;;;;;;13.30;9.20;;;;;;;8.55;52.50;100270.94;6921857;28;20201;-83
2022/01/24 17:40:19;;;;;;;11.53;8.07;;;;;;;7.89;53.02;100281.22;6919544;28;20244;-85
2022/01/24 17:43:40;;;;;;;7.70;6.60;;;;;;;8.25;53.42;100304.44;6922400;28;20251;-85
2022/01/24 17:47:04;;;;;;;11.13;6.07;;;;;;;8.10;53.00;100303.28;6902677;28;20691;-83
2022/01/24 17:50:26;;;;;;;11.57;8.70;;;;;;;7.18;54.15;100206.13;6903765;28;20229;-83
2022/01/24 17:53:48;;;;;;;7.70;7.00;;;;;;;7.94;53.86;100303.09;6898030;28;20227;-85
2022/01/24 17:57:09;;;;;;;9.43;6.23;;;;;;;7.82;53.81;100296.25;6897281;28;20206;-85
2022/01/24 18:00:31;;;;;;;7.00;5.77;;;;;;;7.71;54.43;100275.00;6923102;28;20238;-84
2022/01/24 18:03:54;;;;;;;7.43;5.97;;;;;;;7.46;55.48;100299.00;6924101;28;20242;-85
2022/01/24 18:07:16;;;;;;;7.50;5.77;;;;;;;7.57;54.86;100302.34;6924723;28;20213;-85
2022/01/24 18:10:38;;;;;;;12.53;8.57;;;;;;;7.42;54.81;100306.53;6924445;28;20617;-85
2022/01/24 18:13:59;;;;;;;10.37;7.00;;;;;;;7.46;54.82;100293.66;6924537;28;20713;-85
2022/01/24 18:17:21;;;;;;;8.30;7.33;;;;;;;7.59;54.76;100299.50;6925914;28;20223;-85
2022/01/24 18:20:44;;;;;;;8.77;6.47;;;;;;;6.95;54.69;100210.22;6929633;28;20213;-85
2022/01/24 18:24:06;;;;;;;7.43;5.43;;;;;;;7.27;54.90;100275.81;6931142;28;20216;-85
2022/01/24 18:27:29;;;;;;;8.13;5.43;;;;;;;7.05;54.92;100246.69;6930531;28;20205;-86
2022/01/24 18:30:54;;;;;;;6.30;5.60;;;;;;;7.14;55.31;100304.81;6929687;28;20329;-84
2022/01/24 18:34:16;;;;;;;7.50;5.43;;;;;;;7.38;54.39;100310.47;6927625;28;20230;-84
2022/01/24 18:37:39;;;;;;;7.60;5.50;;;;;;;7.55;54.47;100314.25;6936556;28;20204;-84
2022/01/24 18:41:01;;;;;;;7.10;5.60;;;;;;;7.75;53.58;100308.59;6924095;28;20570;-85
2022/01/24 18:44:26;;;;;;;8.17;5.73;;;;;;;7.64;52.96;100311.50;6924829;28;20233;-86
2022/01/24 18:47:50;;;;;;;7.73;5.87;;;;;;;7.19;53.74;100259.59;6932160;28;20225;-87
2022/01/24 18:51:12;;;;;;;12.20;8.43;;;;;;;7.38;53.58;100307.78;6916012;28;20310;-89
2022/01/24 18:54:58;;;;;;;12.13;8.97;;;;;;;7.45;53.41;100310.75;6920770;28;20256;-87
2022/01/24 18:58:25;;;;;;;12.90;9.43;;;;;;;7.40;53.42;100323.75;6933009;28;20208;-87
2022/01/24 19:01:47;;;;;;;10.87;7.50;;;;;;;7.07;53.54;100321.66;6928365;28;20808;-86
2022/01/24 19:05:10;;;;;;;10.33;8.10;;;;;;;6.87;55.28;100323.53;6927239;28;20226;-83
2022/01/24 19:08:31;;;;;;;9.80;6.67;;;;;;;7.02;54.65;100324.75;6919256;28;20567;-89
2022/01/24 19:11:54;;;;;;;8.60;7.03;;;;;;;6.83;54.04;100295.31;6906897;28;20235;-88
2022/01/24 19:15:19;;;;;;;10.67;7.00;;;;;;;6.36;55.28;100340.97;6922816;28;20229;-89
2022/01/24 19:18:48;;;;;;;22.70;14.27;;;;;;;6.46;55.37;100323.88;6932351;28;20210;-88
2022/01/24 19:26:11;;;;;;;14.90;10.10;;;;;;;5.67;57.68;100358.00;6920491;28;20209;-84
2022/01/24 19:29:35;;;;;;;19.73;13.13;;;;;;;5.41;58.34;100352.28;6911252;28;20223;-89
2022/01/24 19:32:56;;;;;;;15.73;10.53;;;;;;;4.76;58.59;100242.28;6903483;28;20235;-87
2022/01/24 19:36:19;;;;;;;18.67;11.83;;;;;;;5.91;57.88;100351.34;6906950;28;20210;-88
2022/01/24 19:39:41;;;;;;;15.33;8.80;;;;;;;5.82;57.80;100349.50;6924961;28;20296;-88
2022/01/24 19:43:03;;;;;;;14.57;10.30;;;;;;;5.67;58.49;100352.66;6921735;28;20229;-88
2022/01/24 19:46:26;;;;;;;18.00;11.53;;;;;;;5.45;58.29;100371.59;6917503;28;20601;-87
2022/01/24 19:49:48;;;;;;;14.40;10.40;;;;;;;5.33;57.77;100297.78;6921013;28;20211;-90
2022/01/24 19:53:11;;;;;;;18.33;10.70;;;;;;;5.81;57.71;100349.63;6908303;28;20274;-86
2022/01/24 19:56:40;;;;;;;16.43;11.43;;;;;;;5.70;57.36;100349.69;6921637;28;20222;-85
2022/01/24 20:00:09;;;;;;;17.77;12.57;;;;;;;5.06;58.68;100301.06;6923828;28;20215;-85
2022/01/24 20:03:32;;;;;;;18.63;9.80;;;;;;;5.86;57.83;100363.44;6921981;28;20249;-86
2022/01/24 20:06:55;;;;;;;17.97;10.87;;;;;;;5.44;58.54;100354.72;6924264;28;20207;-84
2022/01/24 20:10:17;;;;;;;14.47;9.90;;;;;;;5.52;58.08;100376.25;6929975;28;20208;-83
2022/01/24 20:13:40;;;;;;;14.20;9.53;;;;;;;5.81;57.77;100354.97;6932748;28;20235;-82
2022/01/24 20:17:02;;;;;;;14.07;10.23;;;;;;;5.25;58.18;100303.81;6919465;28;20203;-85
2022/01/24 20:20:26;;;;;;;13.40;9.83;;;;;;;5.71;57.27;100330.84;6922251;28;20203;-82
2022/01/24 20:23:48;;;;;;;20.17;13.23;;;;;;;5.58;57.50;100327.56;6922431;28;20237;-82
2022/01/24 20:27:10;;;;;;;14.73;9.83;;;;;;;5.55;56.97;100303.75;6920733;28;20215;-83
2022/01/24 20:30:32;;;;;;;14.43;8.80;;;;;;;5.32;57.01;100272.84;6921512;28;20215;-85
2022/01/24 20:33:54;;;;;;;15.73;10.50;;;;;;;5.67;57.53;100382.91;6916599;28;20228;-83
2022/01/24 20:37:17;;;;;;;16.63;9.53;;;;;;;5.79;57.50;100370.28;6919614;28;20557;-84
2022/01/24 20:40:39;;;;;;;16.87;11.03;;;;;;;5.71;57.35;100381.69;6917029;28;20691;-84
2022/01/24 20:44:01;;;;;;;17.57;12.33;;;;;;;5.14;57.69;100284.34;6916119;28;20257;-84
2022/01/24 20:47:23;;;;;;;16.43;12.10;;;;;;;5.68;57.71;100381.09;6916428;28;20196;-84
2022/01/24 20:50:48;;;;;;;19.83;13.57;;;;;;;5.51;57.94;100355.84;6920213;28;20218;-82
2022/01/24 20:54:11;;;;;;;19.17;13.90;;;;;;;5.50;57.97;100370.22;6923402;28;20234;-83
2022/01/24 20:57:33;;;;;;;20.47;13.70;;;;;;;5.38;58.09;100331.19;6921911;28;20197;-83
2022/01/24 21:00:55;;;;;;;23.20;14.50;;;;;;;5.77;57.33;100383.81;6927200;28;20211;-83
2022/01/24 21:04:16;;;;;;;23.70;14.20;;;;;;;5.76;57.83;100390.16;6909840;28;20225;-86
2022/01/24 21:07:42;;;;;;;17.47;13.43;;;;;;;5.61;58.12;100383.47;6898032;28;20215;-86
2022/01/24 21:11:09;;;;;;;18.00;13.67;;;;;;;5.56;58.17;100339.38;6900132;28;20203;-84
2022/01/24 21:14:31;;;;;;;21.57;14.77;;;;;;;5.65;57.93;100371.50;6899413;28;20232;-84
2022/01/24 21:17:53;;;;;;;21.53;14.03;;;;;;;5.14;57.83;100253.09;6899416;28;20208;-86
2022/01/24 21:21:15;;;;;;;19.23;13.47;;;;;;;5.94;57.62;100375.16;6898747;28;20207;-87
2022/01/24 21:24:36;;;;;;;24.73;15.33;;;;;;;5.64;57.45;100372.50;6899139;28;20394;-85
2022/01/24 21:27:59;;;;;;;22.17;15.17;;;;;;;5.67;58.06;100363.38;6899025;28;20697;-82
2022/01/24 21:31:25;;;;;;;20.13;13.53;;;;;;;5.82;57.51;100375.38;6900104;28;20226;-86
2022/01/24 21:35:19;;;;;;;22.37;14.30;;;;;;;5.38;58.09;100347.22;6896331;28;20624;-87
2022/01/24 21:38:42;;;;;;;20.67;13.83;;;;;;;5.51;58.01;100377.25;6906983;28;20208;-90
2022/01/24 21:42:06;;;;;;;20.97;13.93;;;;;;;5.63;57.88;100354.75;6917479;28;20202;-84
2022/01/24 21:45:31;;;;;;;18.67;13.10;;;;;;;5.58;56.99;100308.84;6907830;28;20236;-87
2022/01/24 21:48:53;;;;;;;25.00;14.57;;;;;;;5.58;57.63;100370.38;6916680;28;20199;-88
2022/01/24 21:52:15;;;;;;;19.27;13.17;;;;;;;4.99;57.81;100266.97;6940293;28;20220;-82
2022/01/24 21:55:37;;;;;;;21.17;13.37;;;;;;;5.75;57.16;100368.88;6921379;28;20233;-86
2022/01/24 21:59:04;;;;;;;19.87;13.57;;;;;;;5.70;57.14;100361.25;6923894;28;20242;-84
